createdAt,value
2018-09-27T00:00:36.380Z,99.90
2018-09-27T00:03:04.637Z,99.90
2018-09-27T00:05:33.356Z,99.90
2018-09-27T00:08:02.280Z,99.90
2018-09-27T00:10:30.536Z,99.90
2018-09-27T00:12:58.884Z,99.90
2018-09-27T00:15:27.164Z,99.90
2018-09-27T00:17:55.416Z,99.90
2018-09-27T00:20:23.737Z,99.90
2018-09-27T00:22:52.000Z,99.90
2018-09-27T00:25:20.274Z,99.90
2018-09-27T00:27:49.169Z,99.90
2018-09-27T00:30:17.449Z,99.90
2018-09-27T00:32:45.712Z,99.90
2018-09-27T00:35:14.533Z,99.90
2018-09-27T00:37:42.810Z,99.90
2018-09-27T00:40:11.060Z,99.90
2018-09-27T00:42:40.280Z,99.90
2018-09-27T00:45:08.541Z,99.90
2018-09-27T00:47:36.805Z,99.90
2018-09-27T00:50:05.464Z,99.90
2018-09-27T00:52:33.726Z,99.90
2018-09-27T00:55:01.997Z,99.90
2018-09-27T00:57:30.860Z,99.90
2018-09-27T00:59:59.152Z,99.90
2018-09-27T01:02:27.400Z,99.90
2018-09-27T01:04:56.304Z,99.90
2018-09-27T01:07:24.569Z,99.90
2018-09-27T01:09:52.917Z,99.90
2018-09-27T01:12:21.196Z,99.90
2018-09-27T01:14:49.468Z,99.90
2018-09-27T01:17:17.723Z,99.90
2018-09-27T01:19:46.092Z,99.90
2018-09-27T01:22:14.341Z,99.90
2018-09-27T01:24:42.600Z,99.90
2018-09-27T01:27:11.204Z,99.90
2018-09-27T01:29:39.496Z,99.90
2018-09-27T01:32:07.765Z,99.90
2018-09-27T01:34:36.056Z,99.90
2018-09-27T01:37:04.392Z,99.90
2018-09-27T01:39:32.648Z,99.90
2018-09-27T01:42:00.933Z,99.90
2018-09-27T01:44:29.192Z,99.90
2018-09-27T01:46:57.477Z,99.90
2018-09-27T01:49:25.940Z,99.90
2018-09-27T01:51:54.212Z,99.90
2018-09-27T01:54:22.466Z,99.90
2018-09-27T01:56:50.760Z,99.90
2018-09-27T01:59:19.033Z,99.90
2018-09-27T02:01:47.284Z,99.90
2018-09-27T02:04:16.217Z,99.90
2018-09-27T02:06:44.475Z,99.90
2018-09-27T02:09:12.748Z,99.90
2018-09-27T02:11:42.238Z,99.90
2018-09-27T02:14:10.499Z,99.90
2018-09-27T02:16:38.755Z,99.90
2018-09-27T02:19:07.421Z,99.90
2018-09-27T02:21:35.672Z,99.90
2018-09-27T02:24:04.016Z,99.90
2018-09-27T02:26:33.132Z,99.90
2018-09-27T02:29:01.431Z,99.90
2018-09-27T02:31:29.695Z,99.90
2018-09-27T02:33:58.596Z,99.90
2018-09-27T02:36:26.838Z,99.90
2018-09-27T02:38:55.113Z,99.90
2018-09-27T02:41:23.724Z,99.90
2018-09-27T02:43:52.045Z,99.90
2018-09-27T02:46:20.291Z,99.90
2018-09-27T02:48:49.272Z,99.90
2018-09-27T02:51:17.599Z,99.90
2018-09-27T02:53:45.851Z,99.90
2018-09-27T02:56:14.124Z,99.90
2018-09-27T02:58:42.388Z,99.90
2018-09-27T03:01:10.740Z,99.90
2018-09-27T03:03:39.332Z,99.90
2018-09-27T03:06:07.876Z,99.90
2018-09-27T03:08:36.135Z,99.90
2018-09-27T03:11:04.932Z,99.90
2018-09-27T03:13:33.270Z,99.90
2018-09-27T03:16:01.580Z,99.90
2018-09-27T03:18:30.325Z,99.90
2018-09-27T03:20:58.622Z,99.90
2018-09-27T03:23:26.879Z,99.90
2018-09-27T03:25:55.679Z,99.90
2018-09-27T03:28:24.339Z,99.90
2018-09-27T03:30:52.857Z,99.90
2018-09-27T03:33:21.356Z,99.90
2018-09-27T03:35:49.824Z,99.90
2018-09-27T03:38:18.080Z,99.90
2018-09-27T03:40:46.424Z,99.90
2018-09-27T03:43:14.684Z,99.90
2018-09-27T03:45:42.968Z,99.90
2018-09-27T03:48:11.664Z,99.90
2018-09-27T03:50:39.929Z,99.90
2018-09-27T03:53:08.183Z,99.90
2018-09-27T03:55:36.768Z,99.90
2018-09-27T03:58:05.032Z,99.90
2018-09-27T04:00:33.297Z,99.90
2018-09-27T04:03:01.658Z,99.90
2018-09-27T04:05:29.903Z,99.90
2018-09-27T04:07:58.176Z,99.90
2018-09-27T04:10:27.516Z,99.90
2018-09-27T04:12:55.780Z,99.90
2018-09-27T04:15:24.256Z,99.90
2018-09-27T04:17:52.905Z,99.90
2018-09-27T04:20:21.182Z,99.90
2018-09-27T04:22:49.568Z,99.90
2018-09-27T04:25:18.215Z,99.90
2018-09-27T04:27:46.526Z,99.90
2018-09-27T04:30:14.898Z,99.90
2018-09-27T04:32:43.549Z,99.90
2018-09-27T04:35:11.824Z,99.90
2018-09-27T04:37:40.081Z,99.90
2018-09-27T04:40:08.708Z,99.90
2018-09-27T04:42:36.971Z,99.90
2018-09-27T04:45:05.418Z,99.90
2018-09-27T04:47:33.704Z,99.90
2018-09-27T04:50:01.975Z,99.90
2018-09-27T04:52:30.228Z,99.90
2018-09-27T04:54:58.526Z,99.90
2018-09-27T04:57:26.854Z,99.90
2018-09-27T04:59:55.323Z,99.90
2018-09-27T05:02:23.739Z,99.90
2018-09-27T05:04:52.014Z,99.90
2018-09-27T05:07:20.265Z,99.90
2018-09-27T05:09:48.929Z,99.90
2018-09-27T05:12:17.196Z,99.90
2018-09-27T05:14:45.461Z,99.90
2018-09-27T05:17:14.615Z,99.90
2018-09-27T05:19:42.912Z,99.90
2018-09-27T05:22:11.181Z,99.90
2018-09-27T05:24:39.514Z,99.90
2018-09-27T05:27:08.187Z,99.90
2018-09-27T05:29:36.362Z,99.90
2018-09-27T05:32:05.066Z,99.90
2018-09-27T05:34:33.324Z,99.90
2018-09-27T05:37:01.589Z,99.90
2018-09-27T05:39:29.967Z,99.90
2018-09-27T05:41:58.192Z,99.90
2018-09-27T05:44:26.463Z,99.90
2018-09-27T05:46:54.838Z,99.90
2018-09-27T05:49:23.085Z,99.90
2018-09-27T05:51:51.376Z,99.90
2018-09-27T05:54:20.211Z,99.90
2018-09-27T05:56:48.497Z,99.90
2018-09-27T05:59:16.840Z,99.90
2018-09-27T06:01:46.432Z,99.90
2018-09-27T06:04:14.806Z,99.90
2018-09-27T06:06:43.119Z,99.90
2018-09-27T06:09:12.516Z,99.90
2018-09-27T06:11:40.779Z,99.90
2018-09-27T06:14:09.884Z,99.90
2018-09-27T06:16:39.480Z,99.90
2018-09-27T06:19:08.466Z,99.90
2018-09-27T06:21:36.813Z,99.90
2018-09-27T06:24:05.535Z,99.90
2018-09-27T06:26:33.784Z,99.90
2018-09-27T06:29:02.079Z,99.90
2018-09-27T06:31:30.443Z,99.90
2018-09-27T06:33:58.849Z,99.90
2018-09-27T06:36:27.115Z,99.90
2018-09-27T06:38:55.460Z,99.90
2018-09-27T06:41:23.785Z,99.90
2018-09-27T06:43:52.036Z,99.90
2018-09-27T06:46:20.439Z,99.90
2018-09-27T06:48:48.773Z,99.90
2018-09-27T06:51:16.996Z,99.90
2018-09-27T06:53:45.607Z,99.90
2018-09-27T06:56:13.885Z,99.90
2018-09-27T06:58:42.183Z,99.90
2018-09-27T07:01:10.557Z,99.90
2018-09-27T07:03:38.870Z,99.90
2018-09-27T07:06:07.476Z,99.90
2018-09-27T07:08:36.242Z,99.90
2018-09-27T07:11:04.493Z,99.90
2018-09-27T07:13:32.772Z,99.90
2018-09-27T07:16:01.404Z,99.90
2018-09-27T07:18:29.909Z,99.90
2018-09-27T07:20:58.259Z,99.90
2018-09-27T07:23:27.253Z,99.90
2018-09-27T07:25:55.508Z,99.90
2018-09-27T07:28:23.752Z,99.90
2018-09-27T07:30:52.726Z,99.90
2018-09-27T07:33:21.202Z,99.90
2018-09-27T07:35:49.541Z,99.90
2018-09-27T07:38:18.083Z,99.90
2018-09-27T07:40:46.368Z,99.90
2018-09-27T07:43:14.657Z,99.90
2018-09-27T07:45:43.377Z,99.90
2018-09-27T07:48:12.352Z,99.90
2018-09-27T07:50:40.725Z,99.90
2018-09-27T07:53:09.336Z,99.90
2018-09-27T07:55:37.684Z,99.90
2018-09-27T07:58:06.020Z,99.90
2018-09-27T08:00:35.313Z,99.90
2018-09-27T08:03:03.628Z,99.90
2018-09-27T08:05:31.972Z,99.90
2018-09-27T08:08:00.628Z,99.90
2018-09-27T08:10:28.926Z,99.90
2018-09-27T08:12:57.201Z,99.90
2018-09-27T08:15:25.477Z,99.90
2018-09-27T08:17:53.728Z,99.90
2018-09-27T08:20:22.043Z,99.90
2018-09-27T08:22:50.932Z,99.90
2018-09-27T08:25:19.260Z,99.90
2018-09-27T08:27:47.529Z,99.90
2018-09-27T08:30:15.840Z,99.90
2018-09-27T08:32:44.135Z,99.90
2018-09-27T08:35:12.409Z,99.90
2018-09-27T08:37:41.097Z,99.90
2018-09-27T08:40:09.371Z,99.90
2018-09-27T08:42:37.640Z,99.90
2018-09-27T08:45:06.661Z,99.90
2018-09-27T08:47:34.857Z,99.90
2018-09-27T08:50:03.250Z,99.90
2018-09-27T08:52:31.553Z,99.90
2018-09-27T08:54:59.856Z,99.90
2018-09-27T08:57:28.240Z,99.90
2018-09-27T08:59:56.763Z,99.90
2018-09-27T09:02:25.048Z,99.90
2018-09-27T09:04:53.337Z,99.90
2018-09-27T09:07:21.618Z,99.90
2018-09-27T09:09:50.131Z,99.90
2018-09-27T09:12:18.403Z,99.90
2018-09-27T09:14:46.697Z,99.90
2018-09-27T09:17:14.986Z,99.90
2018-09-27T09:19:43.321Z,99.90
2018-09-27T09:22:11.753Z,99.90
2018-09-27T09:24:40.209Z,99.90
2018-09-27T09:27:08.569Z,99.90
2018-09-27T09:29:37.477Z,99.90
2018-09-27T09:32:05.784Z,99.90
2018-09-27T09:34:34.052Z,99.90
2018-09-27T09:37:02.805Z,99.90
2018-09-27T09:39:31.065Z,99.90
2018-09-27T09:41:59.387Z,99.90
2018-09-27T09:44:27.673Z,99.90
2018-09-27T09:46:55.973Z,99.90
2018-09-27T09:49:24.240Z,99.90
2018-09-27T09:51:53.089Z,99.90
2018-09-27T09:54:21.372Z,99.90
2018-09-27T09:56:49.634Z,99.90
2018-09-27T09:59:17.972Z,99.90
2018-09-27T10:01:46.236Z,99.90
2018-09-27T10:04:14.564Z,99.90
2018-09-27T10:06:43.121Z,99.90
2018-09-27T10:09:11.688Z,99.90
2018-09-27T10:11:39.954Z,99.90
2018-09-27T10:14:08.699Z,99.90
2018-09-27T10:16:37.217Z,99.90
2018-09-27T10:19:05.472Z,99.90
2018-09-27T10:21:34.275Z,99.90
2018-09-27T10:24:02.540Z,99.90
2018-09-27T10:26:30.952Z,99.90
2018-09-27T10:28:59.222Z,99.90
2018-09-27T10:31:27.535Z,99.90
2018-09-27T10:33:55.803Z,99.90
2018-09-27T10:36:24.090Z,99.90
2018-09-27T10:38:52.363Z,99.90
2018-09-27T10:41:20.619Z,99.90
2018-09-27T10:43:49.992Z,99.90
2018-09-27T10:46:18.968Z,99.90
2018-09-27T10:48:47.342Z,99.90
2018-09-27T10:51:16.090Z,99.90
2018-09-27T10:53:44.313Z,99.90
2018-09-27T10:56:12.584Z,99.90
2018-09-27T10:58:41.412Z,99.90
2018-09-27T11:01:09.696Z,99.90
2018-09-27T11:03:37.949Z,99.90
2018-09-27T11:06:06.584Z,99.90
2018-09-27T11:08:34.836Z,99.90
2018-09-27T11:11:03.194Z,99.90
2018-09-27T11:13:31.836Z,99.90
2018-09-27T11:16:00.100Z,99.90
2018-09-27T11:18:28.388Z,99.90
2018-09-27T11:20:56.978Z,99.90
2018-09-27T11:23:25.278Z,99.90
2018-09-27T11:25:53.542Z,99.90
2018-09-27T11:28:22.008Z,99.90
2018-09-27T11:30:55.513Z,99.90
2018-09-27T11:33:24.937Z,99.90
2018-09-27T11:35:53.192Z,99.90
2018-09-27T11:38:21.541Z,99.90
2018-09-27T11:40:50.676Z,99.90
2018-09-27T11:43:18.951Z,99.90
2018-09-27T11:45:47.208Z,99.90
2018-09-27T11:48:16.343Z,99.90
2018-09-27T11:50:44.604Z,99.90
2018-09-27T11:53:12.876Z,99.90
2018-09-27T11:55:41.721Z,99.90
2018-09-27T11:58:09.981Z,99.90
2018-09-27T12:00:38.284Z,99.90
2018-09-27T12:03:07.004Z,99.70
2018-09-27T12:05:35.276Z,99.90
2018-09-27T12:08:03.556Z,99.70
2018-09-27T12:10:31.828Z,99.60
2018-09-27T12:13:00.807Z,99.90
2018-09-27T12:15:29.080Z,99.90
2018-09-27T12:17:57.379Z,99.70
2018-09-27T12:20:25.760Z,99.90
2018-09-27T12:22:54.150Z,99.90
2018-09-27T12:25:23.039Z,99.80
2018-09-27T12:27:51.369Z,99.90
2018-09-27T12:30:19.911Z,99.30
2018-09-27T12:32:48.536Z,99.40
2018-09-27T12:35:16.796Z,99.20
2018-09-27T12:37:45.064Z,99.30
2018-09-27T12:40:13.335Z,99.50
2018-09-27T12:42:41.679Z,97.10
2018-09-27T12:45:09.954Z,97.50
2018-09-27T12:47:38.404Z,98.40
2018-09-27T12:50:06.660Z,96.60
2018-09-27T12:52:35.011Z,97.00
2018-09-27T12:55:03.360Z,98.10
2018-09-27T12:57:31.625Z,97.80
2018-09-27T12:59:59.888Z,97.60
2018-09-27T13:02:28.419Z,98.60
2018-09-27T13:04:56.674Z,98.20
2018-09-27T13:07:25.105Z,97.90
2018-09-27T13:09:53.998Z,98.30
2018-09-27T13:12:22.263Z,99.30
2018-09-27T13:14:50.510Z,98.10
2018-09-27T13:17:19.340Z,98.60
2018-09-27T13:19:47.630Z,98.70
2018-09-27T13:22:15.870Z,97.90
2018-09-27T13:24:44.614Z,97.80
2018-09-27T13:27:12.889Z,97.90
2018-09-27T13:29:41.144Z,97.40
2018-09-27T13:32:09.845Z,98.90
2018-09-27T13:34:38.085Z,97.80
2018-09-27T13:37:06.445Z,98.20
2018-09-27T13:39:34.721Z,97.40
2018-09-27T13:42:04.187Z,98.70
2018-09-27T13:44:32.532Z,99.10
2018-09-27T13:47:01.460Z,98.80
2018-09-27T13:49:29.759Z,98.70
2018-09-27T13:51:58.032Z,98.90
2018-09-27T13:54:26.946Z,98.40
2018-09-27T13:56:55.317Z,98.80
2018-09-27T13:59:23.516Z,99.00
2018-09-27T14:01:51.812Z,98.70
2018-09-27T14:04:20.084Z,99.10
2018-09-27T14:06:48.348Z,98.30
2018-09-27T14:09:16.714Z,98.10
2018-09-27T14:11:45.002Z,98.90
2018-09-27T14:14:13.274Z,98.50
2018-09-27T14:16:41.553Z,98.80
2018-09-27T14:19:09.900Z,98.70
2018-09-27T14:21:38.172Z,99.90
2018-09-27T14:24:06.519Z,99.20
2018-09-27T14:26:34.784Z,98.90
2018-09-27T14:29:03.933Z,99.90
2018-09-27T14:31:32.581Z,99.90
2018-09-27T14:34:00.928Z,99.90
2018-09-27T14:36:29.207Z,99.90
2018-09-27T14:38:58.140Z,99.70
2018-09-27T14:41:26.447Z,99.90
2018-09-27T14:43:54.675Z,99.80
2018-09-27T14:46:23.504Z,99.80
2018-09-27T14:48:51.755Z,99.90
2018-09-27T14:51:20.040Z,99.90
2018-09-27T14:53:49.280Z,99.90
2018-09-27T14:56:17.584Z,99.90
2018-09-27T14:58:45.930Z,99.90
2018-09-27T15:01:14.196Z,99.90
2018-09-27T15:03:42.440Z,99.00
2018-09-27T15:06:10.696Z,99.90
2018-09-27T15:08:38.966Z,99.90
2018-09-27T15:11:07.272Z,99.90
2018-09-27T15:13:35.544Z,99.90
2018-09-27T15:16:03.945Z,99.90
2018-09-27T15:18:32.421Z,99.90
2018-09-27T15:21:00.829Z,99.90
2018-09-27T15:23:29.799Z,99.90
2018-09-27T15:25:58.201Z,99.90
2018-09-27T15:28:26.528Z,99.90
2018-09-27T15:30:54.833Z,99.90
2018-09-27T15:33:23.084Z,99.90
2018-09-27T15:35:51.620Z,99.90
2018-09-27T15:38:21.046Z,99.90
2018-09-27T15:40:49.335Z,99.90
2018-09-27T15:43:17.601Z,99.90
2018-09-27T15:45:46.302Z,99.90
2018-09-27T15:48:15.475Z,99.90
2018-09-27T15:50:44.004Z,99.90
2018-09-27T15:53:12.788Z,99.90
2018-09-27T15:55:41.057Z,99.90
2018-09-27T15:58:10.217Z,99.90
2018-09-27T16:00:38.564Z,99.90
2018-09-27T16:03:07.610Z,99.90
2018-09-27T16:05:35.997Z,99.90
2018-09-27T16:08:04.884Z,99.90
2018-09-27T16:10:34.925Z,99.90
2018-09-27T16:13:04.772Z,99.90
2018-09-27T16:15:33.021Z,99.90
2018-09-27T16:18:01.373Z,99.90
2018-09-27T16:20:29.743Z,99.90
2018-09-27T16:22:58.016Z,99.90
2018-09-27T16:25:26.370Z,99.90
2018-09-27T16:27:54.992Z,99.90
2018-09-27T16:30:23.272Z,99.90
2018-09-27T16:32:51.532Z,99.90
2018-09-27T16:35:20.509Z,99.90
2018-09-27T16:37:48.838Z,99.90
2018-09-27T16:40:17.468Z,99.90
2018-09-27T16:42:46.005Z,99.90
2018-09-27T16:45:14.278Z,99.90
2018-09-27T16:47:42.589Z,99.90
2018-09-27T16:50:10.857Z,99.90
2018-09-27T16:52:39.145Z,99.90
2018-09-27T16:55:07.428Z,99.90
2018-09-27T16:57:36.293Z,99.90
2018-09-27T17:00:04.764Z,99.90
2018-09-27T17:02:33.024Z,99.90
2018-09-27T17:05:01.312Z,99.90
2018-09-27T17:07:29.599Z,99.90
2018-09-27T17:09:57.860Z,99.90
2018-09-27T17:12:26.448Z,99.90
2018-09-27T17:14:54.732Z,99.90
2018-09-27T17:17:23.005Z,99.90
2018-09-27T17:19:51.816Z,99.90
2018-09-27T17:22:20.084Z,99.90
2018-09-27T17:24:48.332Z,99.90
2018-09-27T17:27:16.980Z,99.90
2018-09-27T17:29:45.299Z,99.90
2018-09-27T17:32:13.513Z,99.90
2018-09-27T17:34:42.036Z,99.90
2018-09-27T17:37:10.280Z,99.90
2018-09-27T17:39:38.624Z,99.90
2018-09-27T17:42:07.220Z,99.90
2018-09-27T17:44:35.480Z,99.90
2018-09-27T17:47:03.776Z,99.90
2018-09-27T17:49:32.741Z,99.90
2018-09-27T17:52:00.980Z,99.90
2018-09-27T17:54:29.267Z,99.90
2018-09-27T17:56:57.644Z,99.90
2018-09-27T17:59:25.889Z,99.90
2018-09-27T18:01:54.149Z,99.90
2018-09-27T18:04:22.420Z,99.90
2018-09-27T18:06:50.664Z,99.90
2018-09-27T18:09:18.916Z,99.90
2018-09-27T18:11:47.188Z,99.90
2018-09-27T18:14:15.437Z,99.90
2018-09-27T18:16:43.775Z,99.90
2018-09-27T18:19:12.641Z,99.90
2018-09-27T18:21:40.985Z,99.90
2018-09-27T18:24:09.381Z,99.90
2018-09-27T18:26:38.109Z,99.90
2018-09-27T18:29:06.556Z,99.90
2018-09-27T18:31:34.888Z,99.90
2018-09-27T18:34:03.181Z,99.90
2018-09-27T18:36:31.454Z,99.90
2018-09-27T18:38:59.709Z,99.90
2018-09-27T18:41:29.140Z,99.90
2018-09-27T18:43:57.388Z,99.90
2018-09-27T18:46:25.644Z,99.90
2018-09-27T18:48:54.421Z,99.90
2018-09-27T18:51:22.806Z,99.90
2018-09-27T18:53:51.029Z,99.90
2018-09-27T18:56:19.874Z,99.90
2018-09-27T18:58:48.131Z,99.90
2018-09-27T19:01:16.384Z,99.90
2018-09-27T19:03:44.674Z,99.90
2018-09-27T19:06:12.948Z,99.90
2018-09-27T19:08:41.200Z,99.90
2018-09-27T19:11:09.842Z,99.90
2018-09-27T19:13:38.084Z,99.90
2018-09-27T19:16:06.360Z,99.90
2018-09-27T19:18:34.629Z,99.90
2018-09-27T19:21:02.907Z,99.90
2018-09-27T19:23:31.209Z,99.90
2018-09-27T19:26:00.033Z,99.90
2018-09-27T19:28:28.344Z,99.90
2018-09-27T19:30:56.603Z,99.90
2018-09-27T19:33:25.244Z,99.90
2018-09-27T19:35:53.628Z,99.90
2018-09-27T19:38:21.907Z,99.90
2018-09-27T19:40:50.744Z,99.90
2018-09-27T19:43:19.257Z,99.90
2018-09-27T19:45:47.543Z,99.90
2018-09-27T19:48:16.395Z,99.90
2018-09-27T19:50:44.717Z,99.90
2018-09-27T19:53:12.989Z,99.90
2018-09-27T19:55:41.595Z,99.90
2018-09-27T19:58:09.918Z,99.90
2018-09-27T20:00:38.168Z,99.90
2018-09-27T20:03:06.564Z,99.90
2018-09-27T20:05:34.871Z,99.90
2018-09-27T20:08:03.212Z,99.90
2018-09-27T20:10:31.827Z,99.90
2018-09-27T20:13:00.264Z,99.90
2018-09-27T20:15:28.525Z,99.90
2018-09-27T20:17:57.307Z,99.90
2018-09-27T20:20:25.676Z,99.90
2018-09-27T20:22:53.975Z,99.90
2018-09-27T20:25:22.224Z,99.90
2018-09-27T20:27:50.474Z,99.90
2018-09-27T20:30:18.736Z,99.90
2018-09-27T20:32:47.577Z,99.90
2018-09-27T20:35:15.913Z,99.90
2018-09-27T20:37:44.180Z,99.90
2018-09-27T20:40:14.258Z,99.90
2018-09-27T20:42:42.512Z,99.90
2018-09-27T20:45:10.972Z,99.90
2018-09-27T20:47:40.333Z,99.90
2018-09-27T20:50:08.574Z,99.90
2018-09-27T20:52:36.833Z,99.90
2018-09-27T20:55:05.136Z,99.90
2018-09-27T20:57:33.399Z,99.90
2018-09-27T21:00:01.716Z,99.90
2018-09-27T21:02:29.972Z,99.90
2018-09-27T21:04:58.258Z,99.90
2018-09-27T21:07:26.533Z,99.90
2018-09-27T21:09:54.816Z,99.90
2018-09-27T21:12:23.076Z,99.90
2018-09-27T21:14:51.775Z,99.90
2018-09-27T21:17:20.864Z,99.90
2018-09-27T21:19:49.490Z,99.90
2018-09-27T21:22:17.855Z,99.90
2018-09-27T21:24:46.196Z,99.90
2018-09-27T21:27:14.572Z,99.90
2018-09-27T21:29:42.833Z,99.90
2018-09-27T21:32:11.388Z,99.90
2018-09-27T21:34:39.634Z,99.90
2018-09-27T21:37:07.888Z,99.90
2018-09-27T21:39:36.584Z,99.90
2018-09-27T21:42:04.848Z,99.90
2018-09-27T21:44:33.124Z,99.90
2018-09-27T21:47:02.045Z,99.90
2018-09-27T21:49:30.392Z,99.90
2018-09-27T21:51:58.764Z,99.90
2018-09-27T21:54:27.044Z,99.90
2018-09-27T21:56:55.307Z,99.90
2018-09-27T21:59:23.761Z,99.90
2018-09-27T22:01:52.028Z,99.90
2018-09-27T22:04:20.336Z,99.90
2018-09-27T22:06:49.836Z,99.90
2018-09-27T22:09:18.186Z,99.90
2018-09-27T22:11:46.450Z,99.90
2018-09-27T22:14:14.701Z,99.90
2018-09-27T22:16:43.532Z,99.90
2018-09-27T22:19:11.793Z,99.90
2018-09-27T22:21:40.048Z,99.90
2018-09-27T22:24:08.948Z,99.90
2018-09-27T22:26:37.216Z,99.90
2018-09-27T22:29:05.472Z,99.90
2018-09-27T22:31:34.392Z,99.90
2018-09-27T22:34:02.763Z,99.90
2018-09-27T22:36:31.024Z,99.90
2018-09-27T22:38:59.757Z,99.90
2018-09-27T22:41:28.008Z,99.90
2018-09-27T22:43:56.273Z,99.90
2018-09-27T22:46:24.990Z,99.90
2018-09-27T22:48:53.336Z,99.90
2018-09-27T22:51:21.652Z,99.90
2018-09-27T22:53:50.424Z,99.90
2018-09-27T22:56:18.676Z,99.90
2018-09-27T22:58:46.960Z,99.90
2018-09-27T23:01:15.317Z,99.90
2018-09-27T23:03:43.560Z,99.90
2018-09-27T23:06:11.808Z,99.90
2018-09-27T23:08:40.698Z,99.90
2018-09-27T23:11:09.109Z,99.90
2018-09-27T23:13:37.361Z,99.90
2018-09-27T23:16:06.767Z,99.90
2018-09-27T23:18:35.020Z,99.90
2018-09-27T23:21:03.281Z,99.90
2018-09-27T23:23:31.945Z,99.90
2018-09-27T23:26:00.653Z,99.90
2018-09-27T23:28:28.869Z,99.90
2018-09-27T23:30:57.172Z,99.90
2018-09-27T23:33:25.456Z,99.90
2018-09-27T23:35:53.728Z,99.90
2018-09-27T23:38:22.094Z,99.90
2018-09-27T23:40:50.364Z,99.90
2018-09-27T23:43:18.637Z,99.90
2018-09-27T23:45:47.304Z,99.90
2018-09-27T23:48:15.556Z,99.90
2018-09-27T23:50:43.873Z,99.90
2018-09-27T23:53:12.277Z,99.90
2018-09-27T23:55:40.540Z,99.90
2018-09-27T23:58:08.785Z,99.90
